createdAt,value
2023-04-22T00:00:00.000Z,8.61
2023-04-22T00:15:00.000Z,6.38
2023-04-22T00:30:00.000Z,6.4
2023-04-22T00:45:00.000Z,5.99
2023-04-22T01:00:00.000Z,6.39
2023-04-22T01:15:00.000Z,7.6
2023-04-22T01:30:00.000Z,7.12
2023-04-22T01:45:00.000Z,7.49
2023-04-22T02:00:00.000Z,7.86
2023-04-22T02:15:00.000Z,7.18
2023-04-22T02:30:00.000Z,7.12
2023-04-22T02:45:00.000Z,7.09
2023-04-22T03:00:00.000Z,6.84
2023-04-22T03:15:00.000Z,6.71
2023-04-22T03:30:00.000Z,6.65
2023-04-22T03:45:00.000Z,6.99
2023-04-22T04:00:00.000Z,6.53
2023-04-22T04:15:00.000Z,6.98
2023-04-22T04:30:00.000Z,6.73
2023-04-22T04:45:00.000Z,6.91
2023-04-22T05:00:00.000Z,6.96
2023-04-22T05:15:00.000Z,6.92
2023-04-22T05:30:00.000Z,5.54
2023-04-22T05:45:00.000Z,5.2
2023-04-22T06:00:00.000Z,4.52
2023-04-22T06:15:00.000Z,5
2023-04-22T06:30:00.000Z,4.62
2023-04-22T06:45:00.000Z,4.49
2023-04-22T07:00:00.000Z,4.19
2023-04-22T07:15:00.000Z,4.47
2023-04-22T07:30:00.000Z,4.28
2023-04-22T07:45:00.000Z,4.06
2023-04-22T08:00:00.000Z,4.28
2023-04-22T08:15:00.000Z,4.04
2023-04-22T08:30:00.000Z,3.52
2023-04-22T08:45:00.000Z,2.54
2023-04-22T09:00:00.000Z,2.8
2023-04-22T09:15:00.000Z,1.89
2023-04-22T09:30:00.000Z,2.22
2023-04-22T09:45:00.000Z,4.47
2023-04-22T10:00:00.000Z,4.04
2023-04-22T10:15:00.000Z,3.54
2023-04-22T10:30:00.000Z,3.41
2023-04-22T10:45:00.000Z,3.58
2023-04-22T11:00:00.000Z,4.06
2023-04-22T11:15:00.000Z,4.05
2023-04-22T11:30:00.000Z,3.84
2023-04-22T11:45:00.000Z,3.21
2023-04-22T12:00:00.000Z,2.76
2023-04-22T12:15:00.000Z,2.41
2023-04-22T12:30:00.000Z,2.67
2023-04-22T12:45:00.000Z,3.13
2023-04-22T13:00:00.000Z,3.29
2023-04-22T13:15:00.000Z,2.28
2023-04-22T13:30:00.000Z,2.68
2023-04-22T13:45:00.000Z,2.78
2023-04-22T14:00:00.000Z,1.49
2023-04-22T14:15:00.000Z,1.66
2023-04-22T14:30:00.000Z,1.75
2023-04-22T14:45:00.000Z,2.79
2023-04-22T15:00:00.000Z,1.86
2023-04-22T15:15:00.000Z,1.98
2023-04-22T15:30:00.000Z,2.88
2023-04-22T15:45:00.000Z,2.93
2023-04-22T16:00:00.000Z,5.11
2023-04-22T16:15:00.000Z,4.98
2023-04-22T16:30:00.000Z,8.13
2023-04-22T16:45:00.000Z,4.61
2023-04-22T17:00:00.000Z,4.74
2023-04-22T17:15:00.000Z,5.54
2023-04-22T17:30:00.000Z,5.36
2023-04-22T17:45:00.000Z,6.4
2023-04-22T18:00:00.000Z,6.14
2023-04-22T18:15:00.000Z,5.51
2023-04-22T18:30:00.000Z,4.6
2023-04-22T18:45:00.000Z,5.73
2023-04-22T19:00:00.000Z,5.82
2023-04-22T19:15:00.000Z,5.58
2023-04-22T19:30:00.000Z,6.55
2023-04-22T19:45:00.000Z,7.64
2023-04-22T20:00:00.000Z,7.96
2023-04-22T20:15:00.000Z,9.49
2023-04-22T20:30:00.000Z,6.71
2023-04-22T20:45:00.000Z,6.52
2023-04-22T21:00:00.000Z,7.69
2023-04-22T21:15:00.000Z,7.12
2023-04-22T21:30:00.000Z,7.27
2023-04-22T21:45:00.000Z,7.66
2023-04-22T22:00:00.000Z,9
2023-04-22T22:15:00.000Z,7.84
2023-04-22T22:30:00.000Z,7.22
2023-04-22T22:45:00.000Z,8.11
2023-04-22T23:00:00.000Z,7.47
2023-04-22T23:15:00.000Z,7.05
2023-04-22T23:30:00.000Z,7.09
2023-04-22T23:45:00.000Z,6.99
